createdAt,value
2023-04-18T00:01:03.703Z,74.49
2023-04-18T00:03:30.644Z,73.61
2023-04-18T00:06:00.171Z,74.52
2023-04-18T00:08:27.354Z,73.76
2023-04-18T00:10:54.212Z,74.45
2023-04-18T00:13:21.119Z,74.18
2023-04-18T00:15:47.867Z,73.56
2023-04-18T00:18:17.317Z,74.07
2023-04-18T00:20:46.422Z,74.16
2023-04-18T00:23:14.114Z,74.46
2023-04-18T00:25:41.475Z,74.37
2023-04-18T00:28:08.251Z,73.47
2023-04-18T00:30:34.957Z,74.08
2023-04-18T00:33:01.712Z,74.61
2023-04-18T00:35:28.339Z,74.29
2023-04-18T00:37:54.852Z,74.47
2023-04-18T00:40:21.504Z,74.68
2023-04-18T00:42:48.098Z,74.47
2023-04-18T00:45:15.123Z,74.64
2023-04-18T00:47:41.708Z,74.83
2023-04-18T00:50:09.930Z,74.37
2023-04-18T00:52:37.044Z,74.62
2023-04-18T00:55:07.368Z,75.52
2023-04-18T00:57:35.113Z,74.40
2023-04-18T01:00:06.862Z,75.13
2023-04-18T01:02:34.021Z,74.88
2023-04-18T01:05:00.796Z,75.49
2023-04-18T01:07:27.544Z,74.83
2023-04-18T01:09:54.245Z,75.00
2023-04-18T01:12:21.068Z,74.96
2023-04-18T01:14:50.555Z,75.79
2023-04-18T01:17:17.565Z,75.18
2023-04-18T01:19:44.490Z,75.07
2023-04-18T01:22:14.633Z,75.26
2023-04-18T01:24:42.428Z,74.35
2023-04-18T01:27:12.420Z,75.21
2023-04-18T01:29:39.929Z,75.26
2023-04-18T01:32:06.985Z,74.24
2023-04-18T01:34:33.634Z,75.18
2023-04-18T01:37:00.246Z,75.13
2023-04-18T01:39:27.016Z,74.72
2023-04-18T01:41:53.642Z,74.83
2023-04-18T01:44:20.374Z,74.56
2023-04-18T01:46:47.015Z,75.61
2023-04-18T01:49:13.983Z,74.10
2023-04-18T01:51:42.076Z,75.12
2023-04-18T01:54:08.744Z,74.69
2023-04-18T01:56:35.415Z,74.60
2023-04-18T01:59:02.024Z,74.53
2023-04-18T02:01:28.596Z,74.41
2023-04-18T02:03:55.495Z,75.38
2023-04-18T02:06:22.407Z,75.09
2023-04-18T02:08:49.206Z,75.35
2023-04-18T02:11:15.777Z,75.24
2023-04-18T02:13:42.420Z,74.47
2023-04-18T02:16:13.126Z,75.58
2023-04-18T02:18:40.157Z,75.00
2023-04-18T02:21:07.179Z,75.13
2023-04-18T02:23:33.870Z,75.58
2023-04-18T02:26:00.475Z,74.22
2023-04-18T02:28:27.069Z,74.46
2023-04-18T02:30:53.752Z,75.10
2023-04-18T02:33:20.570Z,74.39
2023-04-18T02:35:47.327Z,74.20
2023-04-18T02:38:13.821Z,73.72
2023-04-18T02:40:40.444Z,74.81
2023-04-18T02:43:07.186Z,74.29
2023-04-18T02:45:33.875Z,73.94
2023-04-18T02:48:01.514Z,74.50
2023-04-18T02:50:29.165Z,74.31
2023-04-18T02:52:55.924Z,75.64
2023-04-18T02:55:22.877Z,74.64
2023-04-18T02:57:49.503Z,74.26
2023-04-18T03:00:16.198Z,74.56
2023-04-18T03:02:43.070Z,74.54
2023-04-18T03:05:09.881Z,74.46
2023-04-18T03:07:36.538Z,74.31
2023-04-18T03:10:03.574Z,74.20
2023-04-18T03:12:30.713Z,74.34
2023-04-18T03:14:57.786Z,75.07
2023-04-18T03:17:24.644Z,74.58
2023-04-18T03:19:51.290Z,74.15
2023-04-18T03:22:18.116Z,73.92
2023-04-18T03:24:44.885Z,74.95
2023-04-18T03:27:13.069Z,74.64
2023-04-18T03:29:39.664Z,74.52
2023-04-18T03:32:06.473Z,74.59
2023-04-18T03:34:33.163Z,75.47
2023-04-18T03:36:59.723Z,74.78
2023-04-18T03:39:26.310Z,75.58
2023-04-18T03:41:53.160Z,74.91
2023-04-18T03:44:19.849Z,75.19
2023-04-18T03:46:46.685Z,74.98
2023-04-18T03:49:13.470Z,74.93
2023-04-18T03:51:47.943Z,75.27
2023-04-18T03:54:15.945Z,75.08
2023-04-18T03:56:42.924Z,76.21
2023-04-18T03:59:10.482Z,76.10
2023-04-18T04:01:37.583Z,76.31
2023-04-18T04:04:05.962Z,76.00
2023-04-18T04:06:32.792Z,75.71
2023-04-18T04:08:59.408Z,76.83
2023-04-18T04:11:26.149Z,76.31
2023-04-18T04:13:53.255Z,75.59
2023-04-18T04:16:19.873Z,75.72
2023-04-18T04:18:46.465Z,75.49
2023-04-18T04:21:12.967Z,76.59
2023-04-18T04:23:42.084Z,77.09
2023-04-18T04:26:09.290Z,76.81
2023-04-18T04:28:36.922Z,76.00
2023-04-18T04:31:08.124Z,76.25
2023-04-18T04:33:37.452Z,77.19
2023-04-18T04:36:07.807Z,76.70
2023-04-18T04:38:38.335Z,76.66
2023-04-18T04:41:09.617Z,76.82
2023-04-18T04:43:37.066Z,75.88
2023-04-18T04:46:04.621Z,76.11
2023-04-18T04:48:31.277Z,75.83
2023-04-18T04:50:59.789Z,76.84
2023-04-18T04:53:28.542Z,76.67
2023-04-18T04:55:55.200Z,76.71
2023-04-18T04:58:21.825Z,76.17
2023-04-18T05:00:48.366Z,75.94
2023-04-18T05:03:15.317Z,75.72
2023-04-18T05:05:42.231Z,75.46
2023-04-18T05:08:08.867Z,75.69
2023-04-18T05:10:37.312Z,75.48
2023-04-18T05:13:06.918Z,75.95
2023-04-18T05:15:34.913Z,75.68
2023-04-18T05:18:01.570Z,75.72
2023-04-18T05:20:28.317Z,75.80
2023-04-18T05:22:57.209Z,75.16
2023-04-18T05:25:23.980Z,74.87
2023-04-18T05:27:51.059Z,75.09
2023-04-18T05:30:17.766Z,75.24
2023-04-18T05:32:44.691Z,74.63
2023-04-18T05:35:14.404Z,74.75
2023-04-18T05:37:41.374Z,75.31
2023-04-18T05:40:09.527Z,75.51
2023-04-18T05:42:36.328Z,74.75
2023-04-18T05:45:03.171Z,75.27
2023-04-18T05:47:30.523Z,75.53
2023-04-18T05:49:57.591Z,75.17
2023-04-18T05:52:28.511Z,75.43
2023-04-18T05:54:55.201Z,75.38
2023-04-18T05:57:38.344Z,75.02
2023-04-18T06:00:11.557Z,75.19
2023-04-18T06:02:44.392Z,75.42
2023-04-18T06:05:15.160Z,76.43
2023-04-18T06:07:44.975Z,74.65
2023-04-18T06:10:14.796Z,75.90
2023-04-18T06:12:43.999Z,75.68
2023-04-18T06:15:23.367Z,74.73
2023-04-18T06:18:08.242Z,75.65
2023-04-18T06:20:53.133Z,75.13
2023-04-18T06:23:31.503Z,76.58
2023-04-18T06:25:58.950Z,74.99
2023-04-18T06:28:36.127Z,74.80
2023-04-18T06:31:14.041Z,75.35
2023-04-18T06:34:00.578Z,75.94
2023-04-18T06:37:33.087Z,76.01
2023-04-18T06:40:03.289Z,74.86
2023-04-18T06:43:38.619Z,76.30
2023-04-18T06:47:20.935Z,75.30
2023-04-18T06:49:30.921Z,75.75
2023-04-18T06:55:02.101Z,74.30
2023-04-18T06:57:34.711Z,74.43
2023-04-18T07:00:01.632Z,74.07
2023-04-18T07:02:31.182Z,74.45
2023-04-18T07:05:02.384Z,74.34
2023-04-18T07:13:43.368Z,73.21
2023-04-18T07:16:30.428Z,73.62
2023-04-18T07:19:05.525Z,74.02
2023-04-18T07:21:45.203Z,73.75
2023-04-18T07:24:15.460Z,73.10
2023-04-18T07:26:47.152Z,72.99
2023-04-18T07:29:16.336Z,72.45
2023-04-18T07:31:45.303Z,72.79
2023-04-18T07:34:16.782Z,72.65
2023-04-18T07:37:41.459Z,72.40
2023-04-18T07:40:21.405Z,72.57
2023-04-18T07:45:32.014Z,70.82
2023-04-18T07:48:29.258Z,70.46
2023-04-18T07:50:58.808Z,69.91
2023-04-18T07:53:25.648Z,69.80
2023-04-18T07:56:03.606Z,69.71
2023-04-18T07:58:49.409Z,68.33
2023-04-18T08:01:29.252Z,68.56
2023-04-18T08:04:42.343Z,65.95
2023-04-18T08:07:13.430Z,67.32
2023-04-18T08:09:59.197Z,66.38
2023-04-18T08:12:47.903Z,65.45
2023-04-18T08:15:16.592Z,66.20
2023-04-18T08:17:54.041Z,64.79
2023-04-18T08:20:30.985Z,66.48
2023-04-18T08:23:06.945Z,65.64
2023-04-18T08:26:07.632Z,63.79
2023-04-18T08:28:57.810Z,61.01
2023-04-18T08:31:24.671Z,62.33
2023-04-18T08:34:25.301Z,60.73
2023-04-18T08:37:12.754Z,60.12
2023-04-18T08:40:12.752Z,57.77
2023-04-18T08:43:21.907Z,56.80
2023-04-18T08:45:51.332Z,59.52
2023-04-18T08:48:28.728Z,58.23
2023-04-18T08:50:59.251Z,55.42
2023-04-18T08:53:40.375Z,58.42
2023-04-18T08:56:11.734Z,57.00
2023-04-18T08:58:40.761Z,57.22
2023-04-18T09:01:08.912Z,56.68
2023-04-18T09:03:37.703Z,55.66
2023-04-18T09:06:35.767Z,53.84
2023-04-18T09:09:16.045Z,53.51
2023-04-18T09:11:44.148Z,54.65
2023-04-18T09:15:00.822Z,52.34
2023-04-18T09:17:50.161Z,54.31
2023-04-18T09:20:57.100Z,53.21
2023-04-18T09:23:50.505Z,53.04
2023-04-18T09:27:00.158Z,47.86
2023-04-18T09:29:57.931Z,50.31
2023-04-18T09:32:32.505Z,51.34
2023-04-18T09:35:04.026Z,51.48
2023-04-18T09:38:39.755Z,47.21
2023-04-18T09:40:25.479Z,49.82
2023-04-18T09:43:18.029Z,45.77
2023-04-18T09:45:51.604Z,49.07
2023-04-18T09:48:18.600Z,48.59
2023-04-18T09:50:53.584Z,48.37
2023-04-18T09:53:54.884Z,48.23
2023-04-18T09:56:37.477Z,45.36
2023-04-18T09:59:50.941Z,46.14
2023-04-18T10:02:37.143Z,47.04
2023-04-18T10:05:26.227Z,47.53
2023-04-18T10:08:01.798Z,48.57
2023-04-18T10:10:28.865Z,47.65
2023-04-18T10:13:08.491Z,49.16
2023-04-18T10:15:35.254Z,48.87
2023-04-18T10:18:06.176Z,49.53
2023-04-18T10:20:44.795Z,49.50
2023-04-18T10:23:49.172Z,48.91
2023-04-18T10:26:16.135Z,49.91
2023-04-18T10:29:06.032Z,48.52
2023-04-18T10:31:59.966Z,48.34
2023-04-18T10:34:40.245Z,49.92
2023-04-18T10:37:29.670Z,49.83
2023-04-18T10:40:33.391Z,50.80
2023-04-18T10:43:25.801Z,50.69
2023-04-18T10:46:32.792Z,50.74
2023-04-18T10:49:52.935Z,51.30
2023-04-18T10:52:24.067Z,51.35
2023-04-18T10:55:14.150Z,52.10
2023-04-18T10:57:51.948Z,51.61
2023-04-18T11:00:39.359Z,52.87
2023-04-18T11:03:12.494Z,52.13
2023-04-18T11:05:45.759Z,52.79
2023-04-18T11:08:31.757Z,51.92
2023-04-18T11:11:13.758Z,53.16
2023-04-18T11:14:00.303Z,51.07
2023-04-18T11:19:49.983Z,51.38
2023-04-18T11:22:29.715Z,50.15
2023-04-18T11:25:09.718Z,51.77
2023-04-18T11:27:50.708Z,52.30
2023-04-18T11:30:59.026Z,51.98
2023-04-18T11:33:28.468Z,51.52
2023-04-18T11:36:01.832Z,50.60
2023-04-18T11:38:33.579Z,51.83
2023-04-18T11:41:06.381Z,52.00
2023-04-18T11:43:33.713Z,52.32
2023-04-18T11:46:00.660Z,52.51
2023-04-18T11:49:00.702Z,52.07
2023-04-18T11:51:39.804Z,51.99
2023-04-18T11:54:08.740Z,52.85
2023-04-18T11:56:48.798Z,52.21
2023-04-18T11:59:22.468Z,52.70
2023-04-18T12:02:15.377Z,52.40
2023-04-18T12:05:11.228Z,52.89
2023-04-18T12:08:00.484Z,53.64
2023-04-18T12:10:32.486Z,53.92
2023-04-18T12:13:17.350Z,53.44
2023-04-18T12:16:21.237Z,54.59
2023-04-18T12:19:13.205Z,54.65
2023-04-18T12:22:02.143Z,54.15
2023-04-18T12:25:08.112Z,54.51
2023-04-18T12:28:07.699Z,54.85
2023-04-18T12:34:06.962Z,54.33
2023-04-18T12:36:39.111Z,55.21
2023-04-18T12:39:06.211Z,54.49
2023-04-18T12:41:32.942Z,54.67
2023-04-18T12:44:02.270Z,54.64
2023-04-18T12:48:17.017Z,54.71
2023-04-18T12:49:39.606Z,54.70
2023-04-18T12:52:23.865Z,54.02
2023-04-18T12:55:46.832Z,54.92
2023-04-18T12:58:18.749Z,54.97
2023-04-18T13:00:48.244Z,54.88
2023-04-18T13:03:17.324Z,54.87
2023-04-18T13:05:51.432Z,54.69
2023-04-18T13:08:18.312Z,55.15
2023-04-18T13:10:50.486Z,54.76
2023-04-18T13:13:19.499Z,55.62
2023-04-18T13:15:49.285Z,55.14
2023-04-18T13:18:30.424Z,55.69
2023-04-18T13:20:57.151Z,55.44
2023-04-18T13:26:20.793Z,55.44
2023-04-18T13:28:51.432Z,55.33
2023-04-18T13:31:20.299Z,55.65
2023-04-18T13:33:47.363Z,55.43
2023-04-18T13:36:16.237Z,55.79
2023-04-18T13:39:01.344Z,56.48
2023-04-18T13:41:36.294Z,56.50
2023-04-18T13:44:08.599Z,56.17
2023-04-18T13:46:35.857Z,56.61
2023-04-18T13:49:04.796Z,56.80
2023-04-18T13:51:31.725Z,56.62
2023-04-18T13:55:42.648Z,57.09
2023-04-18T13:57:11.876Z,57.67
2023-04-18T14:02:35.827Z,57.23
2023-04-18T14:05:06.334Z,57.63
2023-04-18T14:07:40.193Z,58.00
2023-04-18T14:11:33.075Z,58.83
2023-04-18T14:14:18.129Z,57.71
2023-04-18T14:20:12.893Z,58.02
2023-04-18T14:22:53.015Z,57.99
2023-04-18T14:25:28.137Z,58.53
2023-04-18T14:28:12.679Z,58.84
2023-04-18T14:35:39.238Z,58.58
2023-04-18T14:38:32.181Z,57.92
2023-04-18T14:41:23.438Z,57.38
2023-04-18T14:45:08.161Z,58.32
2023-04-18T14:49:01.524Z,58.04
2023-04-18T14:55:31.419Z,58.36
2023-04-18T14:58:44.275Z,58.64
2023-04-18T15:01:17.246Z,58.12
2023-04-18T15:03:51.812Z,59.14
2023-04-18T15:06:56.307Z,58.75
2023-04-18T15:09:33.473Z,58.21
2023-04-18T15:12:02.742Z,58.81
2023-04-18T15:18:01.188Z,58.47
2023-04-18T15:20:40.787Z,58.49
2023-04-18T15:23:19.187Z,58.08
2023-04-18T15:25:56.875Z,57.74
2023-04-18T15:29:07.075Z,58.18
2023-04-18T15:34:49.297Z,57.98
2023-04-18T15:37:38.678Z,57.92
2023-04-18T15:40:09.754Z,57.41
2023-04-18T15:43:11.985Z,57.35
2023-04-18T15:45:57.034Z,56.50
2023-04-18T15:48:38.892Z,58.39
2023-04-18T15:51:30.503Z,57.43
2023-04-18T15:54:19.411Z,57.22
2023-04-18T15:56:57.559Z,57.46
2023-04-18T16:02:21.832Z,58.36
2023-04-18T16:05:21.842Z,57.77
2023-04-18T16:08:12.498Z,58.07
2023-04-18T16:13:28.632Z,58.23
2023-04-18T16:16:07.227Z,58.80
2023-04-18T16:18:34.122Z,58.60
2023-04-18T16:22:17.928Z,59.45
2023-04-18T16:28:24.716Z,58.31
2023-04-18T16:31:10.195Z,58.15
2023-04-18T16:33:40.140Z,58.13
2023-04-18T16:36:13.837Z,58.36
2023-04-18T16:38:40.635Z,58.88
2023-04-18T16:41:16.101Z,58.89
2023-04-18T16:43:56.641Z,58.41
2023-04-18T16:46:48.398Z,59.04
2023-04-18T16:49:51.946Z,58.92
2023-04-18T16:52:21.463Z,58.65
2023-04-18T16:54:50.626Z,59.04
2023-04-18T16:57:19.017Z,59.47
2023-04-18T16:59:48.196Z,59.55
2023-04-18T17:02:16.424Z,59.19
2023-04-18T17:04:50.315Z,59.95
2023-04-18T17:07:51.853Z,59.44
2023-04-18T17:10:19.278Z,59.52
2023-04-18T17:12:49.178Z,60.12
2023-04-18T17:15:39.772Z,60.02
2023-04-18T17:18:17.676Z,59.96
2023-04-18T17:20:52.008Z,60.11
2023-04-18T17:23:23.016Z,60.23
2023-04-18T17:25:52.305Z,60.14
2023-04-18T17:28:36.956Z,60.49
2023-04-18T17:31:43.840Z,60.35
2023-04-18T17:34:30.737Z,59.92
2023-04-18T17:37:15.803Z,59.98
2023-04-18T17:39:47.119Z,59.48
2023-04-18T17:42:20.873Z,60.02
2023-04-18T17:45:19.476Z,60.25
2023-04-18T17:48:18.521Z,60.61
2023-04-18T17:50:48.434Z,60.16
2023-04-18T17:56:09.056Z,59.97
2023-04-18T17:58:39.688Z,60.31
2023-04-18T18:01:17.161Z,60.14
2023-04-18T18:04:27.027Z,60.15
2023-04-18T18:10:21.446Z,60.59
2023-04-18T18:12:51.287Z,61.05
2023-04-18T18:16:16.809Z,60.73
2023-04-18T18:18:44.375Z,60.81
2023-04-18T18:21:31.324Z,60.64
2023-04-18T18:24:39.699Z,60.66
2023-04-18T18:31:29.926Z,60.58
2023-04-18T18:33:15.422Z,60.42
2023-04-18T18:39:27.106Z,60.78
2023-04-18T18:43:43.650Z,60.74
2023-04-18T18:49:03.278Z,60.20
2023-04-18T18:51:32.136Z,60.29
2023-04-18T18:54:17.417Z,60.93
2023-04-18T18:56:59.461Z,61.01
2023-04-18T18:59:31.946Z,60.37
2023-04-18T19:02:04.417Z,60.52
2023-04-18T19:04:31.413Z,60.41
2023-04-18T19:07:07.998Z,60.03
2023-04-18T19:15:11.644Z,61.07
2023-04-18T19:17:42.515Z,60.91
2023-04-18T19:23:42.914Z,60.68
2023-04-18T19:26:18.908Z,61.12
2023-04-18T19:28:50.571Z,61.17
2023-04-18T19:31:21.368Z,61.03
2023-04-18T19:33:53.064Z,61.76
2023-04-18T19:36:32.907Z,61.94
2023-04-18T19:39:10.949Z,61.82
2023-04-18T19:41:56.636Z,61.83
2023-04-18T19:48:33.100Z,62.43
2023-04-18T19:52:09.825Z,63.79
2023-04-18T19:54:53.408Z,62.49
2023-04-18T19:57:49.910Z,62.12
2023-04-18T20:00:18.673Z,63.30
2023-04-18T20:02:55.723Z,63.11
2023-04-18T20:05:30.440Z,63.24
2023-04-18T20:11:31.055Z,62.88
2023-04-18T20:14:11.446Z,63.14
2023-04-18T20:24:20.331Z,64.77
2023-04-18T20:27:18.877Z,64.72
2023-04-18T20:30:01.623Z,64.74
2023-04-18T20:36:16.624Z,64.56
2023-04-18T20:38:53.085Z,65.34
2023-04-18T20:41:24.202Z,64.43
2023-04-18T20:43:54.902Z,64.21
2023-04-18T20:46:30.495Z,64.54
2023-04-18T20:49:25.215Z,65.18
2023-04-18T20:52:45.446Z,65.78
2023-04-18T20:55:16.871Z,63.97
2023-04-18T20:58:02.672Z,65.51
2023-04-18T21:00:47.888Z,65.29
2023-04-18T21:03:34.595Z,65.32
2023-04-18T21:06:13.556Z,64.78
2023-04-18T21:08:41.154Z,65.07
2023-04-18T21:11:23.872Z,65.12
2023-04-18T21:14:27.365Z,64.70
2023-04-18T21:17:30.181Z,64.30
2023-04-18T21:20:00.718Z,64.53
2023-04-18T21:22:31.822Z,65.23
2023-04-18T21:25:09.668Z,64.69
2023-04-18T21:28:04.308Z,65.37
2023-04-18T21:30:37.494Z,64.16
2023-04-18T21:33:04.642Z,64.70
2023-04-18T21:35:37.746Z,65.01
2023-04-18T21:38:04.651Z,64.48
2023-04-18T21:40:46.689Z,65.05
2023-04-18T21:43:46.099Z,65.01
2023-04-18T21:46:16.105Z,64.85
2023-04-18T21:49:10.406Z,64.64
2023-04-18T21:51:37.160Z,65.78
2023-04-18T21:54:08.498Z,65.46
2023-04-18T21:56:38.491Z,65.46
2023-04-18T21:59:16.721Z,66.37
2023-04-18T22:01:48.747Z,65.87
2023-04-18T22:04:22.224Z,65.95
2023-04-18T22:06:58.060Z,66.65
2023-04-18T22:09:25.079Z,66.51
2023-04-18T22:11:51.870Z,66.77
2023-04-18T22:14:20.001Z,66.43
2023-04-18T22:16:46.719Z,66.84
2023-04-18T22:19:14.123Z,66.65
2023-04-18T22:21:40.735Z,66.15
2023-04-18T22:24:11.198Z,67.00
2023-04-18T22:26:37.823Z,67.04
2023-04-18T22:29:11.970Z,67.07
2023-04-18T22:31:38.767Z,66.99
2023-04-18T22:34:05.766Z,67.84
2023-04-18T22:36:32.449Z,67.05
2023-04-18T22:39:01.761Z,68.41
2023-04-18T22:41:28.727Z,68.21
2023-04-18T22:43:58.043Z,68.35
2023-04-18T22:46:28.241Z,67.92
2023-04-18T22:48:55.866Z,68.41
2023-04-18T22:51:24.879Z,67.88
2023-04-18T22:53:54.219Z,68.16
2023-04-18T22:56:21.332Z,68.38
2023-04-18T22:58:48.078Z,68.05
2023-04-18T23:01:14.623Z,68.63
2023-04-18T23:03:43.966Z,69.26
2023-04-18T23:06:11.110Z,69.19
2023-04-18T23:08:45.192Z,69.83
2023-04-18T23:11:11.841Z,68.82
2023-04-18T23:13:42.680Z,69.44
2023-04-18T23:16:09.464Z,69.12
2023-04-18T23:18:36.175Z,69.78
2023-04-18T23:21:04.864Z,69.39
2023-04-18T23:23:35.080Z,69.80
2023-04-18T23:26:02.033Z,69.78
2023-04-18T23:28:28.689Z,69.75
2023-04-18T23:30:55.361Z,69.61
2023-04-18T23:33:22.514Z,70.75
2023-04-18T23:35:49.271Z,70.54
2023-04-18T23:38:15.873Z,70.50
2023-04-18T23:40:42.573Z,70.20
2023-04-18T23:43:09.129Z,70.85
2023-04-18T23:45:36.630Z,71.57
2023-04-18T23:48:03.420Z,70.95
2023-04-18T23:50:29.998Z,71.06
2023-04-18T23:52:56.625Z,71.14
2023-04-18T23:55:23.446Z,71.64
2023-04-18T23:57:50.101Z,71.10
